createdAt,value
2018-04-30T00:00:40.825Z,53.75
2018-04-30T00:03:10.673Z,52.82
2018-04-30T00:05:40.649Z,52.93
2018-04-30T00:08:09.827Z,53.24
2018-04-30T00:10:38.644Z,54.03
2018-04-30T00:13:07.043Z,56.40
2018-04-30T00:15:36.737Z,58.21
2018-04-30T00:18:06.617Z,59.12
2018-04-30T00:20:36.132Z,58.59
2018-04-30T00:23:05.566Z,59.39
2018-04-30T00:25:34.713Z,56.93
2018-04-30T00:28:03.386Z,56.15
2018-04-30T00:30:32.747Z,55.50
2018-04-30T00:33:01.612Z,54.67
2018-04-30T00:35:31.038Z,54.32
2018-04-30T00:37:59.435Z,54.51
2018-04-30T00:40:27.788Z,54.12
2018-04-30T00:42:57.015Z,53.92
2018-04-30T00:45:25.806Z,53.97
2018-04-30T00:47:54.568Z,54.04
2018-04-30T00:50:24.264Z,54.16
2018-04-30T00:52:53.964Z,54.84
2018-04-30T00:55:22.571Z,54.72
2018-04-30T00:57:50.963Z,54.52
2018-04-30T01:00:20.466Z,53.85
2018-04-30T01:02:49.597Z,54.52
2018-04-30T01:05:17.989Z,54.38
2018-04-30T01:07:47.714Z,54.26
2018-04-30T01:10:17.483Z,54.66
2018-04-30T01:12:48.261Z,55.25
2018-04-30T01:15:17.434Z,55.33
2018-04-30T01:17:47.050Z,56.80
2018-04-30T01:20:16.807Z,57.55
2018-04-30T01:22:46.114Z,58.12
2018-04-30T01:25:15.893Z,59.11
2018-04-30T01:27:45.099Z,59.36
2018-04-30T01:30:14.201Z,59.82
2018-04-30T01:32:42.979Z,60.37
2018-04-30T01:35:12.900Z,60.86
2018-04-30T01:37:43.058Z,61.58
2018-04-30T01:40:11.612Z,62.01
2018-04-30T01:42:40.396Z,63.07
2018-04-30T01:45:08.715Z,64.24
2018-04-30T01:47:38.521Z,65.65
2018-04-30T01:50:07.259Z,66.13
2018-04-30T01:52:36.401Z,66.69
2018-04-30T01:55:07.533Z,66.67
2018-04-30T01:57:36.796Z,69.08
2018-04-30T02:00:05.248Z,70.31
2018-04-30T02:02:34.419Z,71.49
2018-04-30T02:05:04.309Z,71.57
2018-04-30T02:07:33.421Z,71.93
2018-04-30T02:10:01.821Z,72.05
2018-04-30T02:12:30.235Z,72.73
2018-04-30T02:15:01.636Z,73.31
2018-04-30T02:17:30.880Z,73.73
2018-04-30T02:19:59.247Z,73.85
2018-04-30T02:22:27.614Z,75.15
2018-04-30T02:24:56.776Z,75.49
2018-04-30T02:27:26.852Z,75.94
2018-04-30T02:29:56.588Z,75.85
2018-04-30T02:32:25.897Z,75.97
2018-04-30T02:34:55.022Z,76.08
2018-04-30T02:37:25.080Z,76.23
2018-04-30T02:39:53.452Z,76.03
2018-04-30T02:42:23.237Z,76.02
2018-04-30T02:44:51.637Z,75.86
2018-04-30T02:47:20.742Z,75.55
2018-04-30T02:49:50.570Z,75.54
2018-04-30T02:52:19.829Z,74.01
2018-04-30T02:54:49.661Z,73.48
2018-04-30T02:57:18.632Z,72.96
2018-04-30T02:59:47.186Z,72.67
2018-04-30T03:02:15.944Z,71.68
2018-04-30T03:04:46.223Z,71.60
2018-04-30T03:07:14.946Z,71.73
2018-04-30T03:09:44.172Z,70.86
2018-04-30T03:12:13.532Z,70.70
2018-04-30T03:14:41.851Z,70.67
2018-04-30T03:17:11.006Z,70.92
2018-04-30T03:19:39.387Z,70.64
2018-04-30T03:22:08.253Z,70.41
2018-04-30T03:24:37.114Z,70.48
2018-04-30T03:27:05.451Z,70.52
2018-04-30T03:29:33.881Z,70.42
2018-04-30T03:32:03.262Z,71.00
2018-04-30T03:34:33.623Z,71.48
2018-04-30T03:37:02.298Z,71.77
2018-04-30T03:39:31.029Z,71.99
2018-04-30T03:41:59.377Z,71.49
2018-04-30T03:44:28.679Z,72.16
2018-04-30T03:46:57.644Z,72.37
2018-04-30T03:49:26.264Z,72.16
2018-04-30T03:51:55.623Z,73.54
2018-04-30T03:54:25.785Z,76.86
2018-04-30T03:56:54.255Z,76.29
2018-04-30T03:59:23.032Z,74.69
2018-04-30T04:02:04.348Z,75.00
2018-04-30T04:04:45.568Z,75.49
2018-04-30T04:07:16.495Z,76.27
2018-04-30T04:09:46.284Z,76.06
2018-04-30T04:12:15.923Z,76.25
2018-04-30T04:14:45.093Z,76.96
2018-04-30T04:17:13.696Z,77.68
2018-04-30T04:19:42.053Z,77.95
2018-04-30T04:22:11.255Z,77.75
2018-04-30T04:24:40.304Z,77.57
2018-04-30T04:27:09.412Z,77.33
2018-04-30T04:29:39.024Z,77.18
2018-04-30T04:32:07.462Z,77.17
2018-04-30T04:34:38.262Z,74.92
2018-04-30T04:37:08.053Z,73.76
2018-04-30T04:39:36.415Z,75.58
2018-04-30T04:42:05.147Z,75.88
2018-04-30T04:44:34.187Z,74.12
2018-04-30T04:47:04.399Z,72.93
2018-04-30T04:49:35.146Z,72.09
2018-04-30T04:52:05.362Z,71.36
2018-04-30T04:54:35.424Z,71.64
2018-04-30T04:57:04.933Z,70.82
2018-04-30T04:59:34.445Z,71.06
2018-04-30T05:02:04.958Z,70.28
2018-04-30T05:04:34.777Z,69.02
2018-04-30T05:07:04.098Z,69.62
2018-04-30T05:09:34.062Z,68.69
2018-04-30T05:12:02.455Z,68.89
2018-04-30T05:14:31.983Z,67.66
2018-04-30T05:17:00.336Z,67.14
2018-04-30T05:19:30.265Z,66.54
2018-04-30T05:21:58.868Z,66.03
2018-04-30T05:24:30.514Z,65.87
2018-04-30T05:27:00.278Z,67.00
2018-04-30T05:29:29.177Z,66.61
2018-04-30T05:31:58.870Z,66.45
2018-04-30T05:34:28.233Z,66.37
2018-04-30T05:36:57.666Z,65.79
2018-04-30T05:39:27.533Z,65.54
2018-04-30T05:41:55.918Z,65.51
2018-04-30T05:44:24.320Z,66.31
2018-04-30T05:46:54.528Z,66.09
2018-04-30T05:49:22.859Z,66.03
2018-04-30T05:51:51.276Z,66.59
2018-04-30T05:54:21.312Z,66.43
2018-04-30T05:56:50.598Z,66.54
2018-04-30T05:59:20.384Z,65.93
2018-04-30T06:01:49.601Z,66.32
2018-04-30T06:04:17.961Z,66.43
2018-04-30T06:06:47.837Z,65.92
2018-04-30T06:09:16.328Z,66.92
2018-04-30T06:11:44.637Z,67.09
2018-04-30T06:14:13.234Z,67.02
2018-04-30T06:16:42.218Z,66.77
2018-04-30T06:19:11.981Z,66.90
2018-04-30T06:21:40.365Z,67.09
2018-04-30T06:24:10.205Z,66.77
2018-04-30T06:26:40.833Z,67.54
2018-04-30T06:29:09.218Z,68.16
2018-04-30T06:31:39.312Z,68.52
2018-04-30T06:34:08.602Z,68.21
2018-04-30T06:36:38.750Z,67.61
2018-04-30T06:39:07.462Z,67.28
2018-04-30T06:41:36.534Z,67.94
2018-04-30T06:44:06.101Z,69.18
2018-04-30T06:46:40.089Z,69.58
2018-04-30T06:49:09.103Z,69.58
2018-04-30T06:51:38.314Z,70.61
2018-04-30T06:54:07.897Z,71.54
2018-04-30T06:56:37.217Z,69.68
2018-04-30T06:59:07.410Z,69.73
2018-04-30T07:01:37.618Z,71.15
2018-04-30T07:04:08.421Z,68.71
2018-04-30T07:06:37.987Z,69.56
2018-04-30T07:09:08.418Z,70.29
2018-04-30T07:11:37.642Z,70.05
2018-04-30T07:14:06.046Z,69.59
2018-04-30T07:16:34.403Z,70.48
2018-04-30T07:19:05.227Z,70.63
2018-04-30T07:21:34.466Z,72.06
2018-04-30T07:24:03.133Z,71.90
2018-04-30T07:26:31.597Z,71.88
2018-04-30T07:28:59.969Z,73.30
2018-04-30T07:31:30.326Z,73.64
2018-04-30T07:34:00.269Z,73.38
2018-04-30T07:36:30.780Z,73.21
2018-04-30T07:38:59.632Z,73.79
2018-04-30T07:41:28.800Z,72.97
2018-04-30T07:43:58.203Z,73.57
2018-04-30T07:46:26.572Z,72.95
2018-04-30T07:48:55.828Z,74.87
2018-04-30T07:51:25.001Z,73.87
2018-04-30T07:53:54.312Z,74.16
2018-04-30T07:56:23.441Z,74.01
2018-04-30T07:58:53.545Z,74.64
2018-04-30T08:01:22.213Z,73.87
2018-04-30T08:03:52.122Z,73.31
2018-04-30T08:06:22.775Z,72.91
2018-04-30T08:08:51.396Z,72.19
2018-04-30T08:11:20.151Z,72.24
2018-04-30T08:13:48.713Z,71.53
2018-04-30T08:16:18.862Z,72.04
2018-04-30T08:18:47.630Z,70.91
2018-04-30T08:21:16.733Z,70.20
2018-04-30T08:23:46.539Z,69.91
2018-04-30T08:26:15.822Z,68.71
2018-04-30T08:28:44.428Z,68.05
2018-04-30T08:31:15.067Z,69.47
2018-04-30T08:33:43.485Z,67.50
2018-04-30T08:36:14.817Z,66.10
2018-04-30T08:38:44.758Z,66.03
2018-04-30T08:41:14.276Z,65.98
2018-04-30T08:43:42.633Z,66.64
2018-04-30T08:46:12.936Z,66.00
2018-04-30T08:48:41.701Z,65.76
2018-04-30T08:51:11.650Z,66.83
2018-04-30T08:53:41.229Z,65.29
2018-04-30T08:56:11.532Z,64.72
2018-04-30T08:58:40.301Z,64.70
2018-04-30T09:01:08.612Z,65.05
2018-04-30T09:03:37.665Z,65.54
2018-04-30T09:06:05.981Z,63.90
2018-04-30T09:08:35.206Z,61.68
2018-04-30T09:11:04.325Z,61.44
2018-04-30T09:13:34.863Z,58.99
2018-04-30T09:16:03.577Z,57.72
2018-04-30T09:18:32.980Z,58.14
2018-04-30T09:21:02.402Z,57.84
2018-04-30T09:23:31.796Z,57.74
2018-04-30T09:26:00.195Z,58.11
2018-04-30T09:28:29.789Z,58.28
2018-04-30T09:31:00.824Z,56.40
2018-04-30T09:33:29.172Z,56.48
2018-04-30T09:35:57.494Z,56.54
2018-04-30T09:38:26.805Z,55.80
2018-04-30T09:40:56.002Z,56.97
2018-04-30T09:43:26.663Z,57.11
2018-04-30T09:45:57.990Z,55.84
2018-04-30T09:48:27.132Z,56.33
2018-04-30T09:50:56.281Z,56.74
2018-04-30T09:53:25.405Z,57.39
2018-04-30T09:55:54.328Z,56.01
2018-04-30T09:58:23.329Z,55.74
2018-04-30T10:00:53.001Z,55.58
2018-04-30T10:03:21.388Z,55.90
2018-04-30T10:05:51.822Z,54.88
2018-04-30T10:08:21.056Z,55.25
2018-04-30T10:10:50.416Z,55.35
2018-04-30T10:13:19.795Z,55.45
2018-04-30T10:15:48.118Z,55.17
2018-04-30T10:18:16.465Z,54.59
2018-04-30T10:20:45.890Z,53.41
2018-04-30T10:23:15.832Z,53.74
2018-04-30T10:25:45.110Z,53.49
2018-04-30T10:28:13.933Z,54.31
2018-04-30T10:30:43.912Z,53.68
2018-04-30T10:33:14.045Z,54.21
2018-04-30T10:35:42.363Z,53.48
2018-04-30T10:38:10.858Z,53.70
2018-04-30T10:40:39.190Z,53.76
2018-04-30T10:43:09.760Z,53.54
2018-04-30T10:45:38.999Z,54.20
2018-04-30T10:48:08.031Z,53.70
2018-04-30T10:50:37.276Z,53.65
2018-04-30T10:53:07.920Z,52.90
2018-04-30T10:55:37.062Z,53.89
2018-04-30T10:58:05.395Z,53.03
2018-04-30T11:00:34.608Z,53.17
2018-04-30T11:03:03.961Z,53.11
2018-04-30T11:05:33.857Z,53.36
2018-04-30T11:08:02.399Z,52.70
2018-04-30T11:10:30.773Z,53.66
2018-04-30T11:12:59.913Z,52.40
2018-04-30T11:15:28.699Z,52.25
2018-04-30T11:17:59.369Z,52.97
2018-04-30T11:20:28.032Z,52.88
2018-04-30T11:22:57.091Z,53.44
2018-04-30T11:25:25.475Z,53.04
2018-04-30T11:27:53.823Z,52.74
2018-04-30T11:30:22.223Z,52.46
2018-04-30T11:32:50.558Z,53.24
2018-04-30T11:35:18.910Z,52.07
2018-04-30T11:37:48.773Z,50.72
2018-04-30T11:40:17.822Z,48.51
2018-04-30T11:42:46.850Z,46.83
2018-04-30T11:45:16.139Z,48.31
2018-04-30T11:47:45.374Z,47.47
2018-04-30T11:50:14.992Z,47.16
2018-04-30T11:52:44.388Z,48.87
2018-04-30T11:55:14.753Z,49.68
2018-04-30T11:57:43.067Z,48.42
2018-04-30T12:00:11.466Z,49.04
2018-04-30T12:02:40.723Z,49.17
2018-04-30T12:05:09.986Z,49.09
2018-04-30T12:07:38.573Z,48.30
2018-04-30T12:10:06.967Z,48.90
2018-04-30T12:12:37.372Z,46.86
2018-04-30T12:15:06.230Z,48.28
2018-04-30T12:17:35.188Z,49.23
2018-04-30T12:20:03.564Z,48.25
2018-04-30T12:22:32.262Z,48.30
2018-04-30T12:25:02.561Z,47.32
2018-04-30T12:27:30.890Z,46.67
2018-04-30T12:29:59.241Z,44.61
2018-04-30T12:32:27.620Z,45.03
2018-04-30T12:34:57.535Z,42.75
2018-04-30T12:37:26.243Z,43.77
2018-04-30T12:39:55.781Z,42.96
2018-04-30T12:42:24.106Z,43.01
2018-04-30T12:44:52.454Z,42.66
2018-04-30T12:47:22.021Z,41.98
2018-04-30T12:49:50.468Z,42.63
2018-04-30T12:52:20.603Z,42.45
2018-04-30T12:54:49.068Z,42.00
2018-04-30T12:57:19.199Z,42.16
2018-04-30T12:59:48.940Z,42.83
2018-04-30T13:02:17.525Z,42.73
2018-04-30T13:04:45.995Z,41.95
2018-04-30T13:07:15.407Z,40.25
2018-04-30T13:09:45.582Z,40.05
2018-04-30T13:12:14.740Z,40.17
2018-04-30T13:14:43.415Z,40.05
2018-04-30T13:17:13.317Z,40.55
2018-04-30T13:19:43.025Z,40.89
2018-04-30T13:22:12.167Z,40.66
2018-04-30T13:24:43.527Z,40.12
2018-04-30T13:27:12.736Z,39.61
2018-04-30T13:29:42.681Z,39.72
2018-04-30T13:32:12.520Z,38.95
2018-04-30T13:34:41.751Z,39.72
2018-04-30T13:37:10.061Z,37.80
2018-04-30T13:39:40.170Z,38.12
2018-04-30T13:42:08.489Z,37.74
2018-04-30T13:44:37.675Z,37.32
2018-04-30T13:47:06.648Z,36.79
2018-04-30T13:49:36.360Z,37.11
2018-04-30T13:52:06.041Z,37.43
2018-04-30T13:54:35.937Z,36.70
2018-04-30T13:57:04.202Z,36.23
2018-04-30T13:59:32.588Z,35.91
2018-04-30T14:02:02.362Z,35.37
2018-04-30T14:04:31.732Z,36.49
2018-04-30T14:07:01.221Z,35.40
2018-04-30T14:09:30.489Z,35.53
2018-04-30T14:11:59.432Z,35.64
2018-04-30T14:14:29.781Z,34.98
2018-04-30T14:16:58.873Z,34.49
2018-04-30T14:19:28.061Z,35.89
2018-04-30T14:21:57.317Z,36.69
2018-04-30T14:24:28.163Z,36.18
2018-04-30T14:26:57.827Z,36.09
2018-04-30T14:29:26.885Z,36.58
2018-04-30T14:31:56.364Z,36.94
2018-04-30T14:34:25.896Z,36.69
2018-04-30T14:36:55.257Z,36.60
2018-04-30T14:39:24.213Z,37.61
2018-04-30T14:41:53.453Z,37.46
2018-04-30T14:44:22.163Z,38.11
2018-04-30T14:46:51.557Z,37.59
2018-04-30T14:49:22.136Z,38.12
2018-04-30T14:51:50.828Z,38.58
2018-04-30T14:54:20.386Z,38.82
2018-04-30T14:56:50.281Z,37.68
2018-04-30T14:59:18.571Z,38.68
2018-04-30T15:01:47.468Z,38.81
2018-04-30T15:04:17.049Z,38.74
2018-04-30T15:06:46.248Z,39.89
2018-04-30T15:09:15.116Z,39.97
2018-04-30T15:11:44.531Z,39.46
2018-04-30T15:14:14.251Z,38.37
2018-04-30T15:16:44.437Z,39.54
2018-04-30T15:19:13.938Z,40.54
2018-04-30T15:21:42.264Z,40.84
2018-04-30T15:24:11.771Z,40.91
2018-04-30T15:26:40.966Z,39.32
2018-04-30T15:29:09.351Z,39.60
2018-04-30T15:31:39.700Z,40.28
2018-04-30T15:34:09.361Z,40.08
2018-04-30T15:36:37.690Z,39.42
2018-04-30T15:39:06.644Z,39.98
2018-04-30T15:41:36.702Z,39.73
2018-04-30T15:44:06.361Z,40.11
2018-04-30T15:46:35.620Z,39.32
2018-04-30T15:49:04.653Z,38.50
2018-04-30T15:51:33.508Z,39.22
2018-04-30T15:54:02.723Z,40.20
2018-04-30T15:56:33.081Z,40.44
2018-04-30T15:59:03.404Z,38.73
2018-04-30T16:01:32.045Z,39.20
2018-04-30T16:04:00.395Z,40.66
2018-04-30T16:06:28.897Z,41.29
2018-04-30T16:08:58.125Z,41.68
2018-04-30T16:11:26.481Z,41.01
2018-04-30T16:13:54.799Z,41.34
2018-04-30T16:16:23.212Z,41.78
2018-04-30T16:18:53.333Z,42.24
2018-04-30T16:21:23.318Z,42.13
2018-04-30T16:23:52.774Z,42.46
2018-04-30T16:26:23.521Z,42.91
2018-04-30T16:28:53.219Z,43.00
2018-04-30T16:31:22.829Z,42.09
2018-04-30T16:33:51.188Z,41.66
2018-04-30T16:36:20.841Z,40.21
2018-04-30T16:38:49.716Z,39.65
2018-04-30T16:41:19.696Z,40.31
2018-04-30T16:43:48.359Z,39.76
2018-04-30T16:46:17.998Z,38.26
2018-04-30T16:48:46.365Z,38.32
2018-04-30T16:51:14.919Z,38.46
2018-04-30T16:53:43.242Z,38.59
2018-04-30T16:56:12.774Z,39.53
2018-04-30T16:58:41.138Z,40.31
2018-04-30T17:01:10.454Z,42.24
2018-04-30T17:03:38.771Z,44.05
2018-04-30T17:06:09.607Z,42.34
2018-04-30T17:08:38.600Z,43.31
2018-04-30T17:11:08.248Z,43.28
2018-04-30T17:13:37.585Z,44.15
2018-04-30T17:16:06.376Z,44.01
2018-04-30T17:18:34.704Z,44.45
2018-04-30T17:21:03.088Z,44.95
2018-04-30T17:23:32.332Z,45.23
2018-04-30T17:26:03.152Z,45.47
2018-04-30T17:28:31.781Z,45.69
2018-04-30T17:31:01.076Z,43.18
2018-04-30T17:33:30.097Z,43.52
2018-04-30T17:35:58.517Z,41.29
2018-04-30T17:38:28.825Z,41.08
2018-04-30T17:40:58.413Z,41.53
2018-04-30T17:43:27.190Z,42.12
2018-04-30T17:45:56.367Z,43.21
2018-04-30T17:48:25.170Z,43.82
2018-04-30T17:50:54.680Z,43.86
2018-04-30T17:53:24.468Z,44.21
2018-04-30T17:55:54.239Z,44.15
2018-04-30T17:58:23.227Z,43.87
2018-04-30T18:00:52.718Z,44.51
2018-04-30T18:03:21.981Z,44.56
2018-04-30T18:05:51.155Z,45.29
2018-04-30T18:08:20.409Z,45.73
2018-04-30T18:10:49.361Z,46.55
2018-04-30T18:13:18.487Z,46.95
2018-04-30T18:15:48.005Z,47.38
2018-04-30T18:18:16.320Z,47.54
2018-04-30T18:20:45.118Z,48.24
2018-04-30T18:23:15.662Z,48.98
2018-04-30T18:25:44.919Z,49.68
2018-04-30T18:28:14.747Z,49.64
2018-04-30T18:30:44.079Z,49.86
2018-04-30T18:33:13.378Z,49.53
2018-04-30T18:35:42.866Z,50.18
2018-04-30T18:38:11.941Z,50.50
2018-04-30T18:40:40.354Z,50.26
2018-04-30T18:43:09.599Z,49.72
2018-04-30T18:45:37.993Z,49.87
2018-04-30T18:48:06.318Z,50.69
2018-04-30T18:50:35.032Z,50.57
2018-04-30T18:53:03.600Z,50.61
2018-04-30T18:55:32.693Z,51.66
2018-04-30T18:58:01.052Z,51.88
2018-04-30T19:00:29.392Z,52.27
2018-04-30T19:02:57.721Z,52.76
2018-04-30T19:05:26.070Z,52.88
2018-04-30T19:07:55.408Z,53.39
2018-04-30T19:10:23.824Z,53.46
2018-04-30T19:12:52.184Z,53.90
2018-04-30T19:15:20.884Z,53.59
2018-04-30T19:17:50.733Z,54.15
2018-04-30T19:20:19.143Z,54.29
2018-04-30T19:22:47.470Z,54.80
2018-04-30T19:25:16.155Z,54.87
2018-04-30T19:27:46.829Z,54.92
2018-04-30T19:30:16.095Z,55.04
2018-04-30T19:32:46.017Z,55.51
2018-04-30T19:35:14.367Z,55.66
2018-04-30T19:37:42.785Z,55.90
2018-04-30T19:40:11.391Z,55.90
2018-04-30T19:42:40.378Z,55.92
2018-04-30T19:45:09.269Z,55.78
2018-04-30T19:47:38.225Z,56.43
2018-04-30T19:50:07.402Z,56.05
2018-04-30T19:52:36.461Z,56.73
2018-04-30T19:55:04.856Z,56.93
2018-04-30T19:57:33.183Z,56.81
2018-04-30T20:00:01.512Z,57.75
2018-04-30T20:02:29.901Z,57.64
2018-04-30T20:04:58.341Z,58.05
2018-04-30T20:07:26.719Z,57.78
2018-04-30T20:09:56.401Z,58.22
2018-04-30T20:12:25.408Z,58.91
2018-04-30T20:14:53.733Z,58.69
2018-04-30T20:17:22.513Z,58.84
2018-04-30T20:19:51.657Z,58.93
2018-04-30T20:22:20.061Z,59.56
2018-04-30T20:24:48.603Z,59.95
2018-04-30T20:27:17.878Z,59.68
2018-04-30T20:29:48.861Z,59.78
2018-04-30T20:32:18.142Z,59.33
2018-04-30T20:34:46.462Z,59.43
2018-04-30T20:37:14.823Z,59.83
2018-04-30T20:39:43.136Z,59.56
2018-04-30T20:42:12.024Z,58.99
2018-04-30T20:44:41.062Z,59.52
2018-04-30T20:47:09.517Z,59.90
2018-04-30T20:49:38.596Z,59.90
2018-04-30T20:52:06.932Z,59.67
2018-04-30T20:54:36.993Z,58.79
2018-04-30T20:57:06.071Z,59.17
2018-04-30T20:59:34.729Z,58.19
2018-04-30T21:02:03.072Z,57.72
2018-04-30T21:04:32.996Z,57.97
2018-04-30T21:07:01.341Z,57.31
2018-04-30T21:09:31.285Z,57.38
2018-04-30T21:11:59.629Z,57.47
2018-04-30T21:14:27.949Z,56.67
2018-04-30T21:16:57.263Z,57.46
2018-04-30T21:19:25.972Z,56.53
2018-04-30T21:21:55.458Z,56.68
2018-04-30T21:24:24.622Z,56.85
2018-04-30T21:26:54.516Z,56.61
2018-04-30T21:29:22.840Z,56.81
2018-04-30T21:31:51.227Z,57.35
2018-04-30T21:34:19.543Z,57.00
2018-04-30T21:36:47.951Z,57.52
2018-04-30T21:39:16.331Z,57.73
2018-04-30T21:41:51.430Z,57.69
2018-04-30T21:44:20.282Z,57.34
2018-04-30T21:46:48.662Z,57.26
2018-04-30T21:49:16.971Z,57.51
2018-04-30T21:51:46.177Z,57.33
2018-04-30T21:54:14.533Z,57.00
2018-04-30T21:56:42.906Z,56.81
2018-04-30T21:59:11.251Z,57.17
2018-04-30T22:01:39.577Z,57.39
2018-04-30T22:04:07.934Z,58.07
2018-04-30T22:06:36.910Z,58.02
2018-04-30T22:09:06.105Z,58.62
2018-04-30T22:11:34.562Z,58.44
2018-04-30T22:14:04.185Z,57.96
2018-04-30T22:16:32.510Z,58.57
2018-04-30T22:19:01.593Z,58.57
2018-04-30T22:21:29.965Z,58.45
2018-04-30T22:23:59.855Z,58.02
2018-04-30T22:26:28.613Z,58.53
2018-04-30T22:28:56.959Z,58.20
2018-04-30T22:31:26.317Z,59.04
2018-04-30T22:33:55.469Z,58.47
2018-04-30T22:36:24.955Z,58.50
2018-04-30T22:38:53.622Z,57.97
2018-04-30T22:41:21.957Z,58.02
2018-04-30T22:43:51.987Z,58.62
2018-04-30T22:46:20.370Z,57.51
2018-04-30T22:48:49.541Z,57.84
2018-04-30T22:51:17.883Z,56.92
2018-04-30T22:53:46.906Z,57.56
2018-04-30T22:56:15.265Z,57.38
2018-04-30T22:58:44.032Z,57.33
2018-04-30T23:01:13.868Z,56.85
2018-04-30T23:03:42.853Z,57.38
2018-04-30T23:06:11.969Z,57.21
2018-04-30T23:08:40.287Z,55.73
2018-04-30T23:11:08.718Z,56.16
2018-04-30T23:13:37.904Z,55.41
2018-04-30T23:16:06.254Z,55.62
2018-04-30T23:18:34.591Z,55.85
2018-04-30T23:21:03.442Z,56.03
2018-04-30T23:23:31.759Z,55.87
2018-04-30T23:26:01.907Z,56.50
2018-04-30T23:28:30.220Z,56.07
2018-04-30T23:30:59.502Z,55.18
2018-04-30T23:33:28.074Z,54.30
2018-04-30T23:35:57.272Z,53.68
2018-04-30T23:38:25.594Z,54.45
2018-04-30T23:40:54.268Z,55.31
2018-04-30T23:43:23.119Z,55.36
2018-04-30T23:45:51.425Z,55.76
2018-04-30T23:48:20.493Z,56.46
2018-04-30T23:50:48.846Z,56.13
2018-04-30T23:53:17.633Z,56.68
2018-04-30T23:55:45.950Z,56.80
2018-04-30T23:58:16.033Z,56.81
